sensor_id;sensor_type;location;lat;lon;timestamp;P1;durP1;ratioP1;P2;durP2;ratioP2
2486;SDS011;1254;49.144;8.212;2023-04-30T00:00:46;14.90;;;13.27;;
2486;SDS011;1254;49.144;8.212;2023-04-30T00:03:14;15.30;;;13.38;;
2486;SDS011;1254;49.144;8.212;2023-04-30T00:05:44;15.40;;;12.90;;
2486;SDS011;1254;49.144;8.212;2023-04-30T00:08:12;16.02;;;12.55;;
2486;SDS011;1254;49.144;8.212;2023-04-30T00:10:40;16.80;;;13.02;;
2486;SDS011;1254;49.144;8.212;2023-04-30T00:13:08;15.13;;;12.52;;
2486;SDS011;1254;49.144;8.212;2023-04-30T00:15:39;14.10;;;12.57;;
2486;SDS011;1254;49.144;8.212;2023-04-30T00:18:07;13.32;;;11.95;;
2486;SDS011;1254;49.144;8.212;2023-04-30T00:20:35;14.55;;;13.05;;
2486;SDS011;1254;49.144;8.212;2023-04-30T00:23:05;19.13;;;14.43;;
2486;SDS011;1254;49.144;8.212;2023-04-30T00:25:33;17.30;;;14.10;;
2486;SDS011;1254;49.144;8.212;2023-04-30T00:28:02;13.05;;;11.85;;
2486;SDS011;1254;49.144;8.212;2023-04-30T00:30:30;14.32;;;12.70;;
2486;SDS011;1254;49.144;8.212;2023-04-30T00:32:58;15.00;;;12.55;;
2486;SDS011;1254;49.144;8.212;2023-04-30T00:35:27;15.50;;;13.90;;
2486;SDS011;1254;49.144;8.212;2023-04-30T00:37:55;15.48;;;13.18;;
2486;SDS011;1254;49.144;8.212;2023-04-30T00:40:28;15.63;;;13.20;;
2486;SDS011;1254;49.144;8.212;2023-04-30T00:42:56;18.65;;;13.30;;
2486;SDS011;1254;49.144;8.212;2023-04-30T00:45:24;17.25;;;13.98;;
2486;SDS011;1254;49.144;8.212;2023-04-30T00:47:52;17.58;;;13.52;;
2486;SDS011;1254;49.144;8.212;2023-04-30T00:50:21;18.65;;;15.23;;
2486;SDS011;1254;49.144;8.212;2023-04-30T00:52:49;15.48;;;13.88;;
2486;SDS011;1254;49.144;8.212;2023-04-30T00:55:18;16.40;;;13.48;;
2486;SDS011;1254;49.144;8.212;2023-04-30T00:57:48;15.50;;;13.90;;
2486;SDS011;1254;49.144;8.212;2023-04-30T01:00:16;16.60;;;13.75;;
2486;SDS011;1254;49.144;8.212;2023-04-30T01:02:45;17.90;;;14.18;;
2486;SDS011;1254;49.144;8.212;2023-04-30T01:05:13;15.35;;;13.73;;
2486;SDS011;1254;49.144;8.212;2023-04-30T01:07:41;13.68;;;12.20;;
2486;SDS011;1254;49.144;8.212;2023-04-30T01:10:11;16.20;;;13.88;;
2486;SDS011;1254;49.144;8.212;2023-04-30T01:12:42;17.17;;;14.55;;
2486;SDS011;1254;49.144;8.212;2023-04-30T01:15:16;17.20;;;13.45;;
2486;SDS011;1254;49.144;8.212;2023-04-30T01:17:47;17.23;;;15.07;;
2486;SDS011;1254;49.144;8.212;2023-04-30T01:20:18;23.23;;;15.48;;
2486;SDS011;1254;49.144;8.212;2023-04-30T01:22:49;15.38;;;13.10;;
2486;SDS011;1254;49.144;8.212;2023-04-30T01:25:24;16.92;;;14.48;;
2486;SDS011;1254;49.144;8.212;2023-04-30T01:28:02;16.95;;;14.73;;
2486;SDS011;1254;49.144;8.212;2023-04-30T01:30:32;20.90;;;15.80;;
2486;SDS011;1254;49.144;8.212;2023-04-30T01:33:00;21.83;;;14.88;;
2486;SDS011;1254;49.144;8.212;2023-04-30T01:38:20;21.80;;;14.25;;
2486;SDS011;1254;49.144;8.212;2023-04-30T01:40:52;16.48;;;14.23;;
2486;SDS011;1254;49.144;8.212;2023-04-30T01:43:24;17.13;;;14.85;;
2486;SDS011;1254;49.144;8.212;2023-04-30T01:45:57;16.25;;;13.73;;
2486;SDS011;1254;49.144;8.212;2023-04-30T01:48:31;20.85;;;15.23;;
2486;SDS011;1254;49.144;8.212;2023-04-30T01:51:06;16.38;;;13.88;;
2486;SDS011;1254;49.144;8.212;2023-04-30T01:53:37;17.88;;;15.98;;
2486;SDS011;1254;49.144;8.212;2023-04-30T01:56:09;16.77;;;14.80;;
2486;SDS011;1254;49.144;8.212;2023-04-30T01:58:39;18.88;;;15.05;;
2486;SDS011;1254;49.144;8.212;2023-04-30T02:01:17;16.73;;;15.02;;
2486;SDS011;1254;49.144;8.212;2023-04-30T02:03:52;18.52;;;15.90;;
2486;SDS011;1254;49.144;8.212;2023-04-30T02:06:20;17.88;;;15.77;;
2486;SDS011;1254;49.144;8.212;2023-04-30T02:08:51;20.95;;;16.23;;
2486;SDS011;1254;49.144;8.212;2023-04-30T02:11:20;18.13;;;16.23;;
2486;SDS011;1254;49.144;8.212;2023-04-30T02:13:51;15.82;;;14.18;;
2486;SDS011;1254;49.144;8.212;2023-04-30T02:16:19;17.42;;;14.88;;
2486;SDS011;1254;49.144;8.212;2023-04-30T02:18:47;17.48;;;14.95;;
2486;SDS011;1254;49.144;8.212;2023-04-30T02:21:16;16.17;;;14.43;;
2486;SDS011;1254;49.144;8.212;2023-04-30T02:23:44;17.02;;;13.80;;
2486;SDS011;1254;49.144;8.212;2023-04-30T02:26:12;16.27;;;14.52;;
2486;SDS011;1254;49.144;8.212;2023-04-30T02:28:40;18.05;;;16.05;;
2486;SDS011;1254;49.144;8.212;2023-04-30T02:31:13;18.15;;;14.75;;
2486;SDS011;1254;49.144;8.212;2023-04-30T02:33:45;16.95;;;15.25;;
2486;SDS011;1254;49.144;8.212;2023-04-30T02:36:13;17.23;;;14.98;;
2486;SDS011;1254;49.144;8.212;2023-04-30T02:38:41;18.15;;;15.80;;
2486;SDS011;1254;49.144;8.212;2023-04-30T02:41:09;22.75;;;16.92;;
2486;SDS011;1254;49.144;8.212;2023-04-30T02:43:38;16.90;;;14.77;;
2486;SDS011;1254;49.144;8.212;2023-04-30T02:46:06;18.65;;;15.68;;
2486;SDS011;1254;49.144;8.212;2023-04-30T02:48:36;17.52;;;14.55;;
2486;SDS011;1254;49.144;8.212;2023-04-30T02:51:04;17.73;;;15.75;;
2486;SDS011;1254;49.144;8.212;2023-04-30T02:53:32;19.20;;;16.02;;
2486;SDS011;1254;49.144;8.212;2023-04-30T02:56:01;19.50;;;15.63;;
2486;SDS011;1254;49.144;8.212;2023-04-30T02:58:29;17.58;;;15.77;;
2486;SDS011;1254;49.144;8.212;2023-04-30T03:00:57;18.88;;;16.48;;
2486;SDS011;1254;49.144;8.212;2023-04-30T03:03:25;20.77;;;17.33;;
2486;SDS011;1254;49.144;8.212;2023-04-30T03:05:55;19.27;;;16.65;;
2486;SDS011;1254;49.144;8.212;2023-04-30T03:08:24;18.65;;;16.75;;
2486;SDS011;1254;49.144;8.212;2023-04-30T03:10:52;17.30;;;15.27;;
2486;SDS011;1254;49.144;8.212;2023-04-30T03:13:21;17.10;;;15.10;;
2486;SDS011;1254;49.144;8.212;2023-04-30T03:15:55;21.65;;;16.60;;
2486;SDS011;1254;49.144;8.212;2023-04-30T03:18:24;18.20;;;16.20;;
2486;SDS011;1254;49.144;8.212;2023-04-30T03:20:52;21.63;;;17.67;;
2486;SDS011;1254;49.144;8.212;2023-04-30T03:23:22;22.50;;;17.08;;
2486;SDS011;1254;49.144;8.212;2023-04-30T03:25:50;21.15;;;17.42;;
2486;SDS011;1254;49.144;8.212;2023-04-30T03:28:18;23.02;;;15.73;;
2486;SDS011;1254;49.144;8.212;2023-04-30T03:30:47;18.63;;;16.20;;
2486;SDS011;1254;49.144;8.212;2023-04-30T03:33:15;19.45;;;17.40;;
2486;SDS011;1254;49.144;8.212;2023-04-30T03:35:43;20.67;;;17.73;;
2486;SDS011;1254;49.144;8.212;2023-04-30T03:38:11;19.10;;;17.15;;
2486;SDS011;1254;49.144;8.212;2023-04-30T03:40:41;20.23;;;17.05;;
2486;SDS011;1254;49.144;8.212;2023-04-30T03:43:10;18.23;;;16.25;;
2486;SDS011;1254;49.144;8.212;2023-04-30T03:45:39;20.17;;;18.00;;
2486;SDS011;1254;49.144;8.212;2023-04-30T03:48:07;23.38;;;18.63;;
2486;SDS011;1254;49.144;8.212;2023-04-30T03:50:35;21.52;;;18.40;;
2486;SDS011;1254;49.144;8.212;2023-04-30T03:53:03;21.90;;;18.85;;
2486;SDS011;1254;49.144;8.212;2023-04-30T03:55:31;21.25;;;18.58;;
2486;SDS011;1254;49.144;8.212;2023-04-30T03:58:02;20.27;;;16.90;;
2486;SDS011;1254;49.144;8.212;2023-04-30T04:00:30;25.77;;;18.77;;
2486;SDS011;1254;49.144;8.212;2023-04-30T04:02:59;24.38;;;19.30;;
2486;SDS011;1254;49.144;8.212;2023-04-30T04:05:27;21.15;;;18.95;;
2486;SDS011;1254;49.144;8.212;2023-04-30T04:07:56;26.95;;;18.80;;
2486;SDS011;1254;49.144;8.212;2023-04-30T04:10:24;20.70;;;18.13;;
2486;SDS011;1254;49.144;8.212;2023-04-30T04:12:52;24.85;;;19.60;;
2486;SDS011;1254;49.144;8.212;2023-04-30T04:15:22;24.75;;;20.40;;
2486;SDS011;1254;49.144;8.212;2023-04-30T04:17:50;25.50;;;20.38;;
2486;SDS011;1254;49.144;8.212;2023-04-30T04:20:18;21.38;;;18.10;;
2486;SDS011;1254;49.144;8.212;2023-04-30T04:22:47;23.95;;;18.60;;
2486;SDS011;1254;49.144;8.212;2023-04-30T04:25:15;21.52;;;18.13;;
2486;SDS011;1254;49.144;8.212;2023-04-30T04:27:44;21.23;;;18.95;;
2486;SDS011;1254;49.144;8.212;2023-04-30T04:30:12;21.08;;;18.42;;
2486;SDS011;1254;49.144;8.212;2023-04-30T04:32:42;22.45;;;20.00;;
2486;SDS011;1254;49.144;8.212;2023-04-30T04:35:14;24.13;;;19.27;;
2486;SDS011;1254;49.144;8.212;2023-04-30T04:37:43;23.55;;;18.13;;
2486;SDS011;1254;49.144;8.212;2023-04-30T04:40:12;22.85;;;19.55;;
2486;SDS011;1254;49.144;8.212;2023-04-30T04:42:40;23.30;;;19.55;;
2486;SDS011;1254;49.144;8.212;2023-04-30T04:45:08;21.35;;;19.15;;
2486;SDS011;1254;49.144;8.212;2023-04-30T04:47:38;23.50;;;19.52;;
2486;SDS011;1254;49.144;8.212;2023-04-30T04:50:08;21.52;;;18.52;;
2486;SDS011;1254;49.144;8.212;2023-04-30T04:52:36;23.48;;;19.75;;
2486;SDS011;1254;49.144;8.212;2023-04-30T04:55:05;21.27;;;19.00;;
2486;SDS011;1254;49.144;8.212;2023-04-30T04:57:34;19.80;;;17.60;;
2486;SDS011;1254;49.144;8.212;2023-04-30T05:00:03;29.30;;;19.10;;
2486;SDS011;1254;49.144;8.212;2023-04-30T05:02:33;23.23;;;17.70;;
2486;SDS011;1254;49.144;8.212;2023-04-30T05:05:01;22.00;;;19.40;;
2486;SDS011;1254;49.144;8.212;2023-04-30T05:07:31;20.13;;;17.88;;
2486;SDS011;1254;49.144;8.212;2023-04-30T05:10:00;20.95;;;17.95;;
2486;SDS011;1254;49.144;8.212;2023-04-30T05:12:28;21.27;;;18.95;;
2486;SDS011;1254;49.144;8.212;2023-04-30T05:14:56;20.20;;;18.17;;
2486;SDS011;1254;49.144;8.212;2023-04-30T05:17:24;21.00;;;18.08;;
2486;SDS011;1254;49.144;8.212;2023-04-30T05:19:52;19.75;;;17.67;;
2486;SDS011;1254;49.144;8.212;2023-04-30T05:22:21;19.67;;;17.42;;
2486;SDS011;1254;49.144;8.212;2023-04-30T05:24:50;17.98;;;16.13;;
2486;SDS011;1254;49.144;8.212;2023-04-30T05:27:18;19.70;;;17.17;;
2486;SDS011;1254;49.144;8.212;2023-04-30T05:29:47;19.25;;;16.98;;
2486;SDS011;1254;49.144;8.212;2023-04-30T05:32:15;22.92;;;16.88;;
2486;SDS011;1254;49.144;8.212;2023-04-30T05:34:43;19.58;;;17.58;;
2486;SDS011;1254;49.144;8.212;2023-04-30T05:37:11;23.25;;;17.30;;
2486;SDS011;1254;49.144;8.212;2023-04-30T05:39:41;20.92;;;16.40;;
2486;SDS011;1254;49.144;8.212;2023-04-30T05:42:11;19.70;;;17.63;;
2486;SDS011;1254;49.144;8.212;2023-04-30T05:44:39;18.85;;;16.83;;
2486;SDS011;1254;49.144;8.212;2023-04-30T05:47:08;18.00;;;16.20;;
2486;SDS011;1254;49.144;8.212;2023-04-30T05:49:36;17.05;;;15.35;;
2486;SDS011;1254;49.144;8.212;2023-04-30T05:52:04;17.92;;;14.18;;
2486;SDS011;1254;49.144;8.212;2023-04-30T05:54:32;17.48;;;14.75;;
2486;SDS011;1254;49.144;8.212;2023-04-30T05:57:01;15.98;;;14.35;;
2486;SDS011;1254;49.144;8.212;2023-04-30T05:59:30;15.68;;;14.07;;
2486;SDS011;1254;49.144;8.212;2023-04-30T06:01:59;17.08;;;14.93;;
2486;SDS011;1254;49.144;8.212;2023-04-30T06:04:27;14.95;;;13.50;;
2486;SDS011;1254;49.144;8.212;2023-04-30T06:06:55;14.70;;;12.75;;
2486;SDS011;1254;49.144;8.212;2023-04-30T06:09:24;14.68;;;13.35;;
2486;SDS011;1254;49.144;8.212;2023-04-30T06:11:52;17.83;;;12.82;;
2486;SDS011;1254;49.144;8.212;2023-04-30T06:14:20;13.40;;;12.10;;
2486;SDS011;1254;49.144;8.212;2023-04-30T06:16:50;13.00;;;11.67;;
2486;SDS011;1254;49.144;8.212;2023-04-30T06:19:19;11.83;;;10.63;;
2486;SDS011;1254;49.144;8.212;2023-04-30T06:21:47;12.17;;;11.07;;
2486;SDS011;1254;49.144;8.212;2023-04-30T06:24:15;12.83;;;11.60;;
2486;SDS011;1254;49.144;8.212;2023-04-30T06:26:43;11.73;;;10.53;;
2486;SDS011;1254;49.144;8.212;2023-04-30T06:29:11;11.37;;;10.27;;
2486;SDS011;1254;49.144;8.212;2023-04-30T06:31:39;12.27;;;10.10;;
2486;SDS011;1254;49.144;8.212;2023-04-30T06:34:09;10.70;;;9.70;;
2486;SDS011;1254;49.144;8.212;2023-04-30T06:36:37;10.40;;;9.40;;
2486;SDS011;1254;49.144;8.212;2023-04-30T06:39:05;9.73;;;8.93;;
2486;SDS011;1254;49.144;8.212;2023-04-30T06:41:34;9.50;;;8.70;;
2486;SDS011;1254;49.144;8.212;2023-04-30T06:44:09;11.53;;;10.17;;
2486;SDS011;1254;49.144;8.212;2023-04-30T06:46:38;10.33;;;9.40;;
2486;SDS011;1254;49.144;8.212;2023-04-30T06:49:06;10.17;;;9.17;;
2486;SDS011;1254;49.144;8.212;2023-04-30T06:51:35;9.70;;;8.90;;
2486;SDS011;1254;49.144;8.212;2023-04-30T06:54:04;13.50;;;11.03;;
2486;SDS011;1254;49.144;8.212;2023-04-30T06:56:33;10.73;;;9.63;;
2486;SDS011;1254;49.144;8.212;2023-04-30T06:59:01;10.90;;;9.80;;
2486;SDS011;1254;49.144;8.212;2023-04-30T07:01:30;11.90;;;10.80;;
2486;SDS011;1254;49.144;8.212;2023-04-30T07:03:58;12.10;;;10.67;;
2486;SDS011;1254;49.144;8.212;2023-04-30T07:06:26;9.80;;;8.80;;
2486;SDS011;1254;49.144;8.212;2023-04-30T07:08:56;11.10;;;10.03;;
2486;SDS011;1254;49.144;8.212;2023-04-30T07:11:25;10.50;;;9.50;;
2486;SDS011;1254;49.144;8.212;2023-04-30T07:13:53;11.07;;;9.90;;
2486;SDS011;1254;49.144;8.212;2023-04-30T07:16:23;9.80;;;8.90;;
2486;SDS011;1254;49.144;8.212;2023-04-30T07:18:52;10.53;;;9.43;;
2486;SDS011;1254;49.144;8.212;2023-04-30T07:21:21;9.27;;;8.03;;
2486;SDS011;1254;49.144;8.212;2023-04-30T07:23:50;10.70;;;8.73;;
2486;SDS011;1254;49.144;8.212;2023-04-30T07:26:20;9.43;;;8.63;;
2486;SDS011;1254;49.144;8.212;2023-04-30T07:28:50;11.70;;;9.07;;
2486;SDS011;1254;49.144;8.212;2023-04-30T07:31:18;9.20;;;8.40;;
2486;SDS011;1254;49.144;8.212;2023-04-30T07:33:46;10.37;;;9.37;;
2486;SDS011;1254;49.144;8.212;2023-04-30T07:36:15;9.13;;;8.03;;
2486;SDS011;1254;49.144;8.212;2023-04-30T07:38:43;9.40;;;8.50;;
2486;SDS011;1254;49.144;8.212;2023-04-30T07:41:12;12.63;;;9.67;;
2486;SDS011;1254;49.144;8.212;2023-04-30T07:43:41;10.20;;;8.87;;
2486;SDS011;1254;49.144;8.212;2023-04-30T07:46:10;9.03;;;8.33;;
2486;SDS011;1254;49.144;8.212;2023-04-30T07:48:38;10.10;;;9.23;;
2486;SDS011;1254;49.144;8.212;2023-04-30T07:51:06;11.30;;;10.20;;
2486;SDS011;1254;49.144;8.212;2023-04-30T07:53:34;10.90;;;9.00;;
2486;SDS011;1254;49.144;8.212;2023-04-30T07:56:03;11.33;;;9.17;;
2486;SDS011;1254;49.144;8.212;2023-04-30T07:58:31;9.83;;;8.93;;
2486;SDS011;1254;49.144;8.212;2023-04-30T08:01:00;10.40;;;9.50;;
2486;SDS011;1254;49.144;8.212;2023-04-30T08:03:29;10.77;;;9.17;;
2486;SDS011;1254;49.144;8.212;2023-04-30T08:05:57;10.93;;;9.27;;
2486;SDS011;1254;49.144;8.212;2023-04-30T08:08:25;10.40;;;9.50;;
2486;SDS011;1254;49.144;8.212;2023-04-30T08:10:53;9.40;;;8.60;;
2486;SDS011;1254;49.144;8.212;2023-04-30T08:13:21;10.43;;;8.87;;
2486;SDS011;1254;49.144;8.212;2023-04-30T08:15:49;9.53;;;8.63;;
2486;SDS011;1254;49.144;8.212;2023-04-30T08:18:19;13.10;;;9.50;;
2486;SDS011;1254;49.144;8.212;2023-04-30T08:20:47;10.73;;;9.23;;
2486;SDS011;1254;49.144;8.212;2023-04-30T08:23:16;9.87;;;9.07;;
2486;SDS011;1254;49.144;8.212;2023-04-30T08:25:44;9.60;;;8.90;;
2486;SDS011;1254;49.144;8.212;2023-04-30T08:28:12;9.47;;;7.70;;
2486;SDS011;1254;49.144;8.212;2023-04-30T08:30:41;9.87;;;9.03;;
2486;SDS011;1254;49.144;8.212;2023-04-30T08:33:09;10.30;;;9.30;;
2486;SDS011;1254;49.144;8.212;2023-04-30T08:35:39;9.40;;;8.70;;
2486;SDS011;1254;49.144;8.212;2023-04-30T08:38:07;10.53;;;9.53;;
2486;SDS011;1254;49.144;8.212;2023-04-30T08:40:35;10.47;;;9.57;;
2486;SDS011;1254;49.144;8.212;2023-04-30T08:43:04;11.10;;;9.60;;
2486;SDS011;1254;49.144;8.212;2023-04-30T08:45:33;10.23;;;9.37;;
2486;SDS011;1254;49.144;8.212;2023-04-30T08:48:02;8.83;;;8.23;;
2486;SDS011;1254;49.144;8.212;2023-04-30T08:50:30;9.60;;;8.20;;
2486;SDS011;1254;49.144;8.212;2023-04-30T08:53:01;9.33;;;8.73;;
2486;SDS011;1254;49.144;8.212;2023-04-30T08:55:29;10.37;;;9.33;;
2486;SDS011;1254;49.144;8.212;2023-04-30T08:57:59;9.17;;;8.53;;
2486;SDS011;1254;49.144;8.212;2023-04-30T09:00:27;9.47;;;8.80;;
2486;SDS011;1254;49.144;8.212;2023-04-30T09:02:56;9.77;;;9.07;;
2486;SDS011;1254;49.144;8.212;2023-04-30T09:05:24;9.50;;;8.90;;
2486;SDS011;1254;49.144;8.212;2023-04-30T09:07:52;10.03;;;9.30;;
2486;SDS011;1254;49.144;8.212;2023-04-30T09:10:22;10.30;;;9.45;;
2486;SDS011;1254;49.144;8.212;2023-04-30T09:12:59;11.27;;;10.57;;
2486;SDS011;1254;49.144;8.212;2023-04-30T09:15:27;10.57;;;9.77;;
2486;SDS011;1254;49.144;8.212;2023-04-30T09:18:09;10.77;;;10.17;;
2486;SDS011;1254;49.144;8.212;2023-04-30T09:20:38;11.17;;;10.37;;
2486;SDS011;1254;49.144;8.212;2023-04-30T09:23:20;9.50;;;9.00;;
2486;SDS011;1254;49.144;8.212;2023-04-30T09:25:49;10.60;;;10.00;;
2486;SDS011;1254;49.144;8.212;2023-04-30T09:28:18;10.40;;;9.60;;
2486;SDS011;1254;49.144;8.212;2023-04-30T09:30:48;11.30;;;10.50;;
2486;SDS011;1254;49.144;8.212;2023-04-30T09:33:18;10.80;;;10.07;;
2486;SDS011;1254;49.144;8.212;2023-04-30T09:35:46;11.37;;;10.67;;
2486;SDS011;1254;49.144;8.212;2023-04-30T09:38:24;11.50;;;10.80;;
2486;SDS011;1254;49.144;8.212;2023-04-30T09:40:54;11.70;;;10.87;;
2486;SDS011;1254;49.144;8.212;2023-04-30T09:43:22;10.53;;;9.87;;
2486;SDS011;1254;49.144;8.212;2023-04-30T09:45:50;11.27;;;10.47;;
2486;SDS011;1254;49.144;8.212;2023-04-30T09:48:20;12.83;;;10.20;;
2486;SDS011;1254;49.144;8.212;2023-04-30T09:50:48;9.90;;;9.37;;
2486;SDS011;1254;49.144;8.212;2023-04-30T09:53:16;11.10;;;9.37;;
2486;SDS011;1254;49.144;8.212;2023-04-30T09:55:45;9.70;;;9.20;;
2486;SDS011;1254;49.144;8.212;2023-04-30T09:58:16;10.50;;;9.90;;
2486;SDS011;1254;49.144;8.212;2023-04-30T10:00:45;10.10;;;9.60;;
2486;SDS011;1254;49.144;8.212;2023-04-30T10:03:14;10.43;;;9.93;;
2486;SDS011;1254;49.144;8.212;2023-04-30T10:05:43;11.23;;;9.60;;
2486;SDS011;1254;49.144;8.212;2023-04-30T10:08:14;11.40;;;10.80;;
2486;SDS011;1254;49.144;8.212;2023-04-30T10:10:46;11.80;;;11.20;;
2486;SDS011;1254;49.144;8.212;2023-04-30T10:13:18;11.37;;;10.77;;
2486;SDS011;1254;49.144;8.212;2023-04-30T10:15:47;11.83;;;10.90;;
2486;SDS011;1254;49.144;8.212;2023-04-30T10:18:18;11.50;;;10.90;;
2486;SDS011;1254;49.144;8.212;2023-04-30T10:20:47;10.03;;;9.63;;
2486;SDS011;1254;49.144;8.212;2023-04-30T10:23:17;11.87;;;11.37;;
2486;SDS011;1254;49.144;8.212;2023-04-30T10:25:46;11.30;;;10.40;;
2486;SDS011;1254;49.144;8.212;2023-04-30T10:28:15;11.63;;;10.93;;
2486;SDS011;1254;49.144;8.212;2023-04-30T10:30:44;11.80;;;11.00;;
2486;SDS011;1254;49.144;8.212;2023-04-30T10:33:16;11.43;;;10.90;;
2486;SDS011;1254;49.144;8.212;2023-04-30T10:35:48;11.03;;;10.53;;
2486;SDS011;1254;49.144;8.212;2023-04-30T10:38:18;12.90;;;12.30;;
2486;SDS011;1254;49.144;8.212;2023-04-30T10:40:48;12.93;;;12.33;;
2486;SDS011;1254;49.144;8.212;2023-04-30T10:43:17;10.90;;;10.50;;
2486;SDS011;1254;49.144;8.212;2023-04-30T10:45:48;12.07;;;11.57;;
2486;SDS011;1254;49.144;8.212;2023-04-30T10:48:16;12.77;;;12.20;;
2486;SDS011;1254;49.144;8.212;2023-04-30T10:50:50;13.03;;;12.33;;
2486;SDS011;1254;49.144;8.212;2023-04-30T10:53:19;13.63;;;12.53;;
2486;SDS011;1254;49.144;8.212;2023-04-30T10:55:51;12.00;;;11.40;;
2486;SDS011;1254;49.144;8.212;2023-04-30T10:58:23;11.77;;;11.17;;
2486;SDS011;1254;49.144;8.212;2023-04-30T11:01:00;11.87;;;10.83;;
2486;SDS011;1254;49.144;8.212;2023-04-30T11:03:29;12.20;;;11.70;;
2486;SDS011;1254;49.144;8.212;2023-04-30T11:05:58;12.77;;;12.07;;
2486;SDS011;1254;49.144;8.212;2023-04-30T11:08:32;12.13;;;11.33;;
2486;SDS011;1254;49.144;8.212;2023-04-30T11:11:00;12.07;;;11.40;;
2486;SDS011;1254;49.144;8.212;2023-04-30T11:13:39;11.67;;;10.93;;
2486;SDS011;1254;49.144;8.212;2023-04-30T11:16:09;12.50;;;11.70;;
2486;SDS011;1254;49.144;8.212;2023-04-30T11:18:42;12.63;;;12.03;;
2486;SDS011;1254;49.144;8.212;2023-04-30T11:21:10;13.67;;;13.07;;
2486;SDS011;1254;49.144;8.212;2023-04-30T11:23:42;12.30;;;11.70;;
2486;SDS011;1254;49.144;8.212;2023-04-30T11:26:11;13.50;;;13.00;;
2486;SDS011;1254;49.144;8.212;2023-04-30T11:28:39;13.60;;;12.70;;
2486;SDS011;1254;49.144;8.212;2023-04-30T11:31:18;12.80;;;12.20;;
2486;SDS011;1254;49.144;8.212;2023-04-30T11:33:47;13.37;;;12.77;;
2486;SDS011;1254;49.144;8.212;2023-04-30T11:36:16;13.30;;;12.30;;
2486;SDS011;1254;49.144;8.212;2023-04-30T11:38:44;13.57;;;12.87;;
2486;SDS011;1254;49.144;8.212;2023-04-30T11:41:12;12.50;;;11.90;;
2486;SDS011;1254;49.144;8.212;2023-04-30T11:43:41;12.57;;;11.90;;
2486;SDS011;1254;49.144;8.212;2023-04-30T11:46:09;12.90;;;12.20;;
2486;SDS011;1254;49.144;8.212;2023-04-30T11:48:39;13.03;;;12.33;;
2486;SDS011;1254;49.144;8.212;2023-04-30T11:51:15;14.17;;;13.30;;
2486;SDS011;1254;49.144;8.212;2023-04-30T11:53:44;13.33;;;12.73;;
2486;SDS011;1254;49.144;8.212;2023-04-30T11:56:12;13.83;;;13.03;;
2486;SDS011;1254;49.144;8.212;2023-04-30T11:58:40;13.43;;;12.70;;
2486;SDS011;1254;49.144;8.212;2023-04-30T12:01:09;14.00;;;13.30;;
2486;SDS011;1254;49.144;8.212;2023-04-30T12:03:42;13.93;;;13.13;;
2486;SDS011;1254;49.144;8.212;2023-04-30T12:06:10;13.40;;;12.60;;
2486;SDS011;1254;49.144;8.212;2023-04-30T12:08:40;14.33;;;13.60;;
2486;SDS011;1254;49.144;8.212;2023-04-30T12:11:20;14.27;;;13.47;;
2486;SDS011;1254;49.144;8.212;2023-04-30T12:13:51;14.03;;;13.10;;
2486;SDS011;1254;49.144;8.212;2023-04-30T12:16:20;13.30;;;12.60;;
2486;SDS011;1254;49.144;8.212;2023-04-30T12:18:49;13.80;;;13.00;;
2486;SDS011;1254;49.144;8.212;2023-04-30T12:21:18;12.80;;;12.20;;
2486;SDS011;1254;49.144;8.212;2023-04-30T12:23:46;13.07;;;12.50;;
2486;SDS011;1254;49.144;8.212;2023-04-30T12:26:15;13.97;;;13.07;;
2486;SDS011;1254;49.144;8.212;2023-04-30T12:28:45;13.37;;;12.67;;
2486;SDS011;1254;49.144;8.212;2023-04-30T12:31:13;14.03;;;13.30;;
2486;SDS011;1254;49.144;8.212;2023-04-30T12:33:46;14.97;;;14.27;;
2486;SDS011;1254;49.144;8.212;2023-04-30T12:36:21;13.30;;;12.70;;
2486;SDS011;1254;49.144;8.212;2023-04-30T12:38:49;12.90;;;12.30;;
2486;SDS011;1254;49.144;8.212;2023-04-30T12:41:28;13.90;;;13.03;;
2486;SDS011;1254;49.144;8.212;2023-04-30T12:46:39;12.90;;;12.30;;
2486;SDS011;1254;49.144;8.212;2023-04-30T12:49:07;14.20;;;13.10;;
2486;SDS011;1254;49.144;8.212;2023-04-30T12:51:38;13.23;;;12.63;;
2486;SDS011;1254;49.144;8.212;2023-04-30T12:54:09;13.97;;;13.37;;
2486;SDS011;1254;49.144;8.212;2023-04-30T12:56:37;13.77;;;13.00;;
2486;SDS011;1254;49.144;8.212;2023-04-30T12:59:13;14.00;;;12.73;;
2486;SDS011;1254;49.144;8.212;2023-04-30T13:01:45;13.53;;;12.63;;
2486;SDS011;1254;49.144;8.212;2023-04-30T13:04:13;13.93;;;13.03;;
2486;SDS011;1254;49.144;8.212;2023-04-30T13:06:43;13.03;;;12.43;;
2486;SDS011;1254;49.144;8.212;2023-04-30T13:09:11;12.70;;;12.10;;
2486;SDS011;1254;49.144;8.212;2023-04-30T13:11:40;13.10;;;12.50;;
2486;SDS011;1254;49.144;8.212;2023-04-30T13:14:08;13.97;;;13.20;;
2486;SDS011;1254;49.144;8.212;2023-04-30T13:16:38;14.13;;;13.43;;
2486;SDS011;1254;49.144;8.212;2023-04-30T13:19:06;13.70;;;12.87;;
2486;SDS011;1254;49.144;8.212;2023-04-30T13:21:34;14.10;;;13.50;;
2486;SDS011;1254;49.144;8.212;2023-04-30T13:24:04;13.30;;;12.70;;
2486;SDS011;1254;49.144;8.212;2023-04-30T13:26:33;12.90;;;12.30;;
2486;SDS011;1254;49.144;8.212;2023-04-30T13:29:01;12.60;;;12.10;;
2486;SDS011;1254;49.144;8.212;2023-04-30T13:31:29;14.00;;;13.30;;
2486;SDS011;1254;49.144;8.212;2023-04-30T13:33:58;13.00;;;12.33;;
2486;SDS011;1254;49.144;8.212;2023-04-30T13:36:26;13.47;;;12.87;;
2486;SDS011;1254;49.144;8.212;2023-04-30T13:38:55;12.33;;;11.83;;
2486;SDS011;1254;49.144;8.212;2023-04-30T13:41:24;13.27;;;12.50;;
2486;SDS011;1254;49.144;8.212;2023-04-30T13:43:53;13.00;;;12.40;;
2486;SDS011;1254;49.144;8.212;2023-04-30T13:46:21;12.60;;;12.10;;
2486;SDS011;1254;49.144;8.212;2023-04-30T13:48:50;13.10;;;12.50;;
2486;SDS011;1254;49.144;8.212;2023-04-30T13:51:19;12.53;;;12.03;;
2486;SDS011;1254;49.144;8.212;2023-04-30T13:53:47;13.93;;;13.33;;
2486;SDS011;1254;49.144;8.212;2023-04-30T13:56:15;14.03;;;13.30;;
2486;SDS011;1254;49.144;8.212;2023-04-30T13:58:45;13.77;;;13.27;;
2486;SDS011;1254;49.144;8.212;2023-04-30T14:01:13;14.73;;;14.10;;
2486;SDS011;1254;49.144;8.212;2023-04-30T14:03:42;13.33;;;12.73;;
2486;SDS011;1254;49.144;8.212;2023-04-30T14:06:11;13.20;;;12.60;;
2486;SDS011;1254;49.144;8.212;2023-04-30T14:08:39;15.10;;;14.20;;
2486;SDS011;1254;49.144;8.212;2023-04-30T14:11:07;13.53;;;13.03;;
2486;SDS011;1254;49.144;8.212;2023-04-30T14:13:35;13.87;;;12.97;;
2486;SDS011;1254;49.144;8.212;2023-04-30T14:16:05;14.30;;;13.63;;
2486;SDS011;1254;49.144;8.212;2023-04-30T14:18:34;15.87;;;15.07;;
2486;SDS011;1254;49.144;8.212;2023-04-30T14:21:02;13.93;;;13.37;;
2486;SDS011;1254;49.144;8.212;2023-04-30T14:23:30;13.60;;;13.00;;
2486;SDS011;1254;49.144;8.212;2023-04-30T14:25:59;13.90;;;13.20;;
2486;SDS011;1254;49.144;8.212;2023-04-30T14:28:27;13.70;;;13.10;;
2486;SDS011;1254;49.144;8.212;2023-04-30T14:30:55;14.00;;;13.10;;
2486;SDS011;1254;49.144;8.212;2023-04-30T14:33:24;13.53;;;12.93;;
2486;SDS011;1254;49.144;8.212;2023-04-30T14:35:53;14.40;;;13.40;;
2486;SDS011;1254;49.144;8.212;2023-04-30T14:38:21;14.03;;;13.13;;
2486;SDS011;1254;49.144;8.212;2023-04-30T14:40:49;13.47;;;12.80;;
2486;SDS011;1254;49.144;8.212;2023-04-30T14:43:17;13.40;;;12.83;;
2486;SDS011;1254;49.144;8.212;2023-04-30T14:45:46;13.60;;;13.00;;
2486;SDS011;1254;49.144;8.212;2023-04-30T14:48:14;14.07;;;13.37;;
2486;SDS011;1254;49.144;8.212;2023-04-30T14:50:43;14.00;;;13.30;;
2486;SDS011;1254;49.144;8.212;2023-04-30T14:53:12;13.73;;;13.13;;
2486;SDS011;1254;49.144;8.212;2023-04-30T14:55:40;13.40;;;12.90;;
2486;SDS011;1254;49.144;8.212;2023-04-30T14:58:09;13.00;;;12.50;;
2486;SDS011;1254;49.144;8.212;2023-04-30T15:00:38;13.57;;;12.77;;
2486;SDS011;1254;49.144;8.212;2023-04-30T15:03:06;13.53;;;12.83;;
2486;SDS011;1254;49.144;8.212;2023-04-30T15:05:34;14.10;;;13.30;;
2486;SDS011;1254;49.144;8.212;2023-04-30T15:08:04;14.30;;;13.50;;